Lombardy, Mississippi
Current Conditions -  °F | °C
As of 6:35 AM on Tuesday 27 Jan 2015 (Local Time) from KRNV Reporting Station
Clear Clear  
Wind Chill: 35°   Ceiling: Unl
Heat Index: 38°   Visibility: 10mi
Dew Point: 37°   Wind: 5mph
Humidity: 93%   Direction: 340°NNW
Pressure: 30.06"   Gusts: NA
Location:  33.976°N, 90.7349°W
Report Text: KRNV 271235Z AUTO 34004KT 10SM CLR 04/03 A3006 RMK AO2 T00350025
Loading
Personal Weather Stations






























Interactive Weather Map New forecast layout! Learn more

10-Day Weather Forecast

Advertisements
Track Severe Weather on mobile